Cleveland, Ohio
Traffic Map
Current Weather Conditions
Cleveland, Ohio
Clear
Clear
69°
Feels Like: 69°
Wind Chill: 69° Ceiling: Unl
Heat Index: 69° Visibility: 10mi
Dew Point: 46° Wind: 9mph
Humidity: 44% Direction: 180° (S)
Pressure: 30.04in Gusts: 0mph
Raw Report DataKBKL 250653Z 18008KT 10SM CLR 21/08 A3004 RMK AO2 SLP169 T02060078
Traffic Incident Summary
Active as of:
Severity:
Category:
InformationThere was an issue retrieving the traffic information for this location. Please try a different location or try again shortly.
Advertisements
Track Severe Weather on mobile